sensor_id;sensor_type;location;lat;lon;timestamp;temperature;humidity
9971;DHT22;5026;51.494;11.974;2023-07-08T00:02:08;19.10;71.50
9971;DHT22;5026;51.494;11.974;2023-07-08T00:04:37;19.10;71.70
9971;DHT22;5026;51.494;11.974;2023-07-08T00:07:05;19.10;72.00
9971;DHT22;5026;51.494;11.974;2023-07-08T00:09:32;19.10;72.30
9971;DHT22;5026;51.494;11.974;2023-07-08T00:11:59;19.00;72.60
9971;DHT22;5026;51.494;11.974;2023-07-08T00:16:53;18.90;73.20
9971;DHT22;5026;51.494;11.974;2023-07-08T00:19:20;18.90;73.50
9971;DHT22;5026;51.494;11.974;2023-07-08T00:21:51;18.90;73.80
9971;DHT22;5026;51.494;11.974;2023-07-08T00:26:45;18.90;74.20
9971;DHT22;5026;51.494;11.974;2023-07-08T00:29:15;18.90;74.50
9971;DHT22;5026;51.494;11.974;2023-07-08T00:31:43;18.90;74.60
9971;DHT22;5026;51.494;11.974;2023-07-08T00:34:10;18.80;74.80
9971;DHT22;5026;51.494;11.974;2023-07-08T00:36:37;18.90;75.00
9971;DHT22;5026;51.494;11.974;2023-07-08T00:39:13;18.90;75.30
9971;DHT22;5026;51.494;11.974;2023-07-08T00:41:42;18.80;75.50
9971;DHT22;5026;51.494;11.974;2023-07-08T00:44:11;18.80;75.80
9971;DHT22;5026;51.494;11.974;2023-07-08T00:46:50;18.80;76.00
9971;DHT22;5026;51.494;11.974;2023-07-08T00:49:28;18.80;76.30
9971;DHT22;5026;51.494;11.974;2023-07-08T00:52:19;18.80;76.50
9971;DHT22;5026;51.494;11.974;2023-07-08T00:54:49;18.70;76.70
9971;DHT22;5026;51.494;11.974;2023-07-08T00:57:16;18.70;77.10
9971;DHT22;5026;51.494;11.974;2023-07-08T00:59:47;18.70;77.50
9971;DHT22;5026;51.494;11.974;2023-07-08T01:02:17;18.70;77.70
9971;DHT22;5026;51.494;11.974;2023-07-08T01:04:49;18.70;77.90
9971;DHT22;5026;51.494;11.974;2023-07-08T01:07:17;18.70;78.20
9971;DHT22;5026;51.494;11.974;2023-07-08T01:09:51;18.60;78.40
9971;DHT22;5026;51.494;11.974;2023-07-08T01:12:21;18.60;78.80
9971;DHT22;5026;51.494;11.974;2023-07-08T01:14:52;18.60;79.00
9971;DHT22;5026;51.494;11.974;2023-07-08T01:17:20;18.50;79.20
9971;DHT22;5026;51.494;11.974;2023-07-08T01:19:49;18.60;79.40
9971;DHT22;5026;51.494;11.974;2023-07-08T01:22:18;18.60;79.50
9971;DHT22;5026;51.494;11.974;2023-07-08T01:24:46;18.50;79.70
9971;DHT22;5026;51.494;11.974;2023-07-08T01:27:16;18.50;79.90
9971;DHT22;5026;51.494;11.974;2023-07-08T01:29:45;18.50;80.10
9971;DHT22;5026;51.494;11.974;2023-07-08T01:32:14;18.50;80.30
9971;DHT22;5026;51.494;11.974;2023-07-08T01:34:45;18.50;80.50
9971;DHT22;5026;51.494;11.974;2023-07-08T01:37:29;18.40;80.70
9971;DHT22;5026;51.494;11.974;2023-07-08T01:42:23;18.40;80.90
9971;DHT22;5026;51.494;11.974;2023-07-08T01:44:51;18.40;81.10
9971;DHT22;5026;51.494;11.974;2023-07-08T01:47:20;18.40;81.40
9971;DHT22;5026;51.494;11.974;2023-07-08T01:49:49;18.40;81.60
9971;DHT22;5026;51.494;11.974;2023-07-08T01:52:17;18.30;81.70
9971;DHT22;5026;51.494;11.974;2023-07-08T01:54:54;18.30;82.00
9971;DHT22;5026;51.494;11.974;2023-07-08T02:04:43;18.10;82.80
9971;DHT22;5026;51.494;11.974;2023-07-08T02:07:10;18.10;82.90
9971;DHT22;5026;51.494;11.974;2023-07-08T02:09:37;18.00;83.30
9971;DHT22;5026;51.494;11.974;2023-07-08T02:12:06;17.90;83.90
9971;DHT22;5026;51.494;11.974;2023-07-08T02:19:31;17.80;85.00
9971;DHT22;5026;51.494;11.974;2023-07-08T02:21:58;17.80;85.50
9971;DHT22;5026;51.494;11.974;2023-07-08T02:26:53;17.70;86.20
9971;DHT22;5026;51.494;11.974;2023-07-08T02:29:21;17.60;86.50
9971;DHT22;5026;51.494;11.974;2023-07-08T02:31:48;17.60;86.80
9971;DHT22;5026;51.494;11.974;2023-07-08T02:34:15;17.60;87.10
9971;DHT22;5026;51.494;11.974;2023-07-08T02:36:42;17.50;87.40
9971;DHT22;5026;51.494;11.974;2023-07-08T02:41:37;20.80;90.40
9971;DHT22;5026;51.494;11.974;2023-07-08T02:44:04;17.50;88.60
9971;DHT22;5026;51.494;11.974;2023-07-08T02:46:33;17.40;89.00
9971;DHT22;5026;51.494;11.974;2023-07-08T02:49:00;17.40;89.40
9971;DHT22;5026;51.494;11.974;2023-07-08T02:51:26;17.30;89.90
9971;DHT22;5026;51.494;11.974;2023-07-08T02:53:54;17.30;90.10
9971;DHT22;5026;51.494;11.974;2023-07-08T02:56:21;17.30;90.20
9971;DHT22;5026;51.494;11.974;2023-07-08T03:01:15;17.30;90.40
9971;DHT22;5026;51.494;11.974;2023-07-08T03:03:45;17.30;90.60
9971;DHT22;5026;51.494;11.974;2023-07-08T03:06:12;17.20;90.70
9971;DHT22;5026;51.494;11.974;2023-07-08T03:11:11;17.20;91.10
9971;DHT22;5026;51.494;11.974;2023-07-08T03:13:38;17.10;91.20
9971;DHT22;5026;51.494;11.974;2023-07-08T03:16:05;17.10;91.30
9971;DHT22;5026;51.494;11.974;2023-07-08T03:18:38;17.10;91.50
9971;DHT22;5026;51.494;11.974;2023-07-08T03:21:13;17.10;91.60
9971;DHT22;5026;51.494;11.974;2023-07-08T03:23:41;17.10;91.80
9971;DHT22;5026;51.494;11.974;2023-07-08T03:26:13;17.10;91.80
9971;DHT22;5026;51.494;11.974;2023-07-08T03:28:41;17.10;92.00
9971;DHT22;5026;51.494;11.974;2023-07-08T03:31:09;17.10;92.10
9971;DHT22;5026;51.494;11.974;2023-07-08T03:33:36;17.30;92.20
9971;DHT22;5026;51.494;11.974;2023-07-08T03:36:07;17.00;92.30
9971;DHT22;5026;51.494;11.974;2023-07-08T03:38:38;17.10;92.50
9971;DHT22;5026;51.494;11.974;2023-07-08T03:41:05;17.10;92.40
9971;DHT22;5026;51.494;11.974;2023-07-08T03:43:32;17.10;92.60
9971;DHT22;5026;51.494;11.974;2023-07-08T03:45:59;17.10;92.70
9971;DHT22;5026;51.494;11.974;2023-07-08T03:48:26;17.10;93.00
9971;DHT22;5026;51.494;11.974;2023-07-08T03:50:52;17.10;93.00
9971;DHT22;5026;51.494;11.974;2023-07-08T03:53:19;17.00;93.10
9971;DHT22;5026;51.494;11.974;2023-07-08T03:55:48;17.10;93.30
9971;DHT22;5026;51.494;11.974;2023-07-08T03:58:14;17.10;93.40
9971;DHT22;5026;51.494;11.974;2023-07-08T04:03:10;17.10;93.50
9971;DHT22;5026;51.494;11.974;2023-07-08T04:05:38;17.20;93.70
9971;DHT22;5026;51.494;11.974;2023-07-08T04:08:06;17.20;93.70
9971;DHT22;5026;51.494;11.974;2023-07-08T04:13:01;17.00;93.70
9971;DHT22;5026;51.494;11.974;2023-07-08T04:15:28;17.10;93.70
9971;DHT22;5026;51.494;11.974;2023-07-08T04:20:23;17.20;93.80
9971;DHT22;5026;51.494;11.974;2023-07-08T04:22:50;17.30;93.80
9971;DHT22;5026;51.494;11.974;2023-07-08T04:25:18;17.40;93.70
9971;DHT22;5026;51.494;11.974;2023-07-08T04:27:45;17.40;93.70
9971;DHT22;5026;51.494;11.974;2023-07-08T04:30:20;17.50;93.70
9971;DHT22;5026;51.494;11.974;2023-07-08T04:32:49;17.60;93.70
9971;DHT22;5026;51.494;11.974;2023-07-08T04:37:43;17.70;93.70
9971;DHT22;5026;51.494;11.974;2023-07-08T04:40:16;17.70;93.70
9971;DHT22;5026;51.494;11.974;2023-07-08T04:45:18;18.00;93.50
9971;DHT22;5026;51.494;11.974;2023-07-08T04:47:45;18.10;93.50
9971;DHT22;5026;51.494;11.974;2023-07-08T04:55:12;18.30;93.20
9971;DHT22;5026;51.494;11.974;2023-07-08T04:57:39;18.40;93.30
9971;DHT22;5026;51.494;11.974;2023-07-08T05:00:07;18.50;93.30
9971;DHT22;5026;51.494;11.974;2023-07-08T05:02:39;18.60;93.10
9971;DHT22;5026;51.494;11.974;2023-07-08T05:05:06;18.60;93.00
9971;DHT22;5026;51.494;11.974;2023-07-08T05:07:33;18.90;92.90
9971;DHT22;5026;51.494;11.974;2023-07-08T05:12:28;19.10;92.80
9971;DHT22;5026;51.494;11.974;2023-07-08T05:14:55;19.30;92.70
9971;DHT22;5026;51.494;11.974;2023-07-08T05:19:51;19.60;92.40
9971;DHT22;5026;51.494;11.974;2023-07-08T05:22:19;20.10;92.30
9971;DHT22;5026;51.494;11.974;2023-07-08T05:24:51;20.50;91.60
9971;DHT22;5026;51.494;11.974;2023-07-08T05:27:21;21.00;91.10
9971;DHT22;5026;51.494;11.974;2023-07-08T05:29:49;21.30;90.60
9971;DHT22;5026;51.494;11.974;2023-07-08T05:32:16;22.00;90.00
9971;DHT22;5026;51.494;11.974;2023-07-08T05:34:44;22.70;87.80
9971;DHT22;5026;51.494;11.974;2023-07-08T05:37:13;22.60;86.60
9971;DHT22;5026;51.494;11.974;2023-07-08T05:39:42;22.60;86.20
9971;DHT22;5026;51.494;11.974;2023-07-08T05:42:09;22.70;84.80
9971;DHT22;5026;51.494;11.974;2023-07-08T05:44:35;23.10;84.70
9971;DHT22;5026;51.494;11.974;2023-07-08T05:47:03;23.30;82.70
9971;DHT22;5026;51.494;11.974;2023-07-08T05:54:25;25.80;78.10
9971;DHT22;5026;51.494;11.974;2023-07-08T05:56:52;28.50;75.10
9971;DHT22;5026;51.494;11.974;2023-07-08T05:59:19;31.00;67.20
9971;DHT22;5026;51.494;11.974;2023-07-08T06:01:46;33.00;62.90
9971;DHT22;5026;51.494;11.974;2023-07-08T06:04:13;33.60;60.20
9971;DHT22;5026;51.494;11.974;2023-07-08T06:06:40;35.50;56.70
9971;DHT22;5026;51.494;11.974;2023-07-08T06:09:07;35.50;57.20
9971;DHT22;5026;51.494;11.974;2023-07-08T06:11:35;37.60;53.30
9971;DHT22;5026;51.494;11.974;2023-07-08T06:14:02;38.50;48.40
9971;DHT22;5026;51.494;11.974;2023-07-08T06:18:57;36.70;48.60
9971;DHT22;5026;51.494;11.974;2023-07-08T06:21:24;37.20;47.90
9971;DHT22;5026;51.494;11.974;2023-07-08T06:23:51;39.80;47.70
9971;DHT22;5026;51.494;11.974;2023-07-08T06:26:18;39.90;48.20
9971;DHT22;5026;51.494;11.974;2023-07-08T06:28:46;41.00;45.00
9971;DHT22;5026;51.494;11.974;2023-07-08T06:36:07;40.40;45.00
9971;DHT22;5026;51.494;11.974;2023-07-08T06:38:34;40.50;45.50
9971;DHT22;5026;51.494;11.974;2023-07-08T06:41:01;42.30;44.40
9971;DHT22;5026;51.494;11.974;2023-07-08T06:43:28;43.30;43.40
9971;DHT22;5026;51.494;11.974;2023-07-08T06:45:57;43.80;42.60
9971;DHT22;5026;51.494;11.974;2023-07-08T06:48:23;43.80;42.20
9971;DHT22;5026;51.494;11.974;2023-07-08T06:50:51;42.50;42.70
9971;DHT22;5026;51.494;11.974;2023-07-08T06:53:18;42.50;41.50
9971;DHT22;5026;51.494;11.974;2023-07-08T06:55:45;43.40;42.00
9971;DHT22;5026;51.494;11.974;2023-07-08T06:58:12;44.30;41.60
9971;DHT22;5026;51.494;11.974;2023-07-08T07:00:41;44.80;41.30
9971;DHT22;5026;51.494;11.974;2023-07-08T07:03:10;45.10;40.70
9971;DHT22;5026;51.494;11.974;2023-07-08T07:05:39;45.50;41.00
9971;DHT22;5026;51.494;11.974;2023-07-08T07:08:06;43.50;40.70
9971;DHT22;5026;51.494;11.974;2023-07-08T07:10:33;43.10;40.60
9971;DHT22;5026;51.494;11.974;2023-07-08T07:13:00;42.20;41.30
9971;DHT22;5026;51.494;11.974;2023-07-08T07:15:27;42.60;40.60
9971;DHT22;5026;51.494;11.974;2023-07-08T07:17:56;40.20;41.30
9971;DHT22;5026;51.494;11.974;2023-07-08T07:20:25;38.40;42.20
9971;DHT22;5026;51.494;11.974;2023-07-08T07:22:52;38.30;42.80
9971;DHT22;5026;51.494;11.974;2023-07-08T07:27:47;34.20;45.00
9971;DHT22;5026;51.494;11.974;2023-07-08T07:30:15;34.60;46.10
9971;DHT22;5026;51.494;11.974;2023-07-08T07:32:42;37.20;45.10
9971;DHT22;5026;51.494;11.974;2023-07-08T07:35:10;37.20;45.60
9971;DHT22;5026;51.494;11.974;2023-07-08T07:37:40;38.00;42.10
9971;DHT22;5026;51.494;11.974;2023-07-08T07:40:08;38.00;42.70
9971;DHT22;5026;51.494;11.974;2023-07-08T07:42:38;38.90;42.90
9971;DHT22;5026;51.494;11.974;2023-07-08T07:45:05;39.00;43.40
9971;DHT22;5026;51.494;11.974;2023-07-08T07:47:32;40.80;42.10
9971;DHT22;5026;51.494;11.974;2023-07-08T07:49:59;41.60;40.40
9971;DHT22;5026;51.494;11.974;2023-07-08T07:52:27;41.50;40.80
9971;DHT22;5026;51.494;11.974;2023-07-08T07:54:56;41.00;41.10
9971;DHT22;5026;51.494;11.974;2023-07-08T07:57:23;41.50;41.30
9971;DHT22;5026;51.494;11.974;2023-07-08T07:59:50;41.20;40.70
9971;DHT22;5026;51.494;11.974;2023-07-08T08:02:17;41.20;41.20
9971;DHT22;5026;51.494;11.974;2023-07-08T08:04:45;38.50;41.30
9971;DHT22;5026;51.494;11.974;2023-07-08T08:07:11;39.80;41.50
9971;DHT22;5026;51.494;11.974;2023-07-08T08:09:38;40.20;41.10
9971;DHT22;5026;51.494;11.974;2023-07-08T08:12:09;40.80;41.00
9971;DHT22;5026;51.494;11.974;2023-07-08T08:14:36;40.90;41.40
9971;DHT22;5026;51.494;11.974;2023-07-08T08:17:04;42.50;40.80
9971;DHT22;5026;51.494;11.974;2023-07-08T08:19:31;42.60;39.80
9971;DHT22;5026;51.494;11.974;2023-07-08T08:21:58;43.00;40.10
9971;DHT22;5026;51.494;11.974;2023-07-08T08:24:25;44.30;39.70
9971;DHT22;5026;51.494;11.974;2023-07-08T08:26:52;44.40;38.40
9971;DHT22;5026;51.494;11.974;2023-07-08T08:29:21;41.00;39.30
9971;DHT22;5026;51.494;11.974;2023-07-08T08:31:48;41.20;40.10
9971;DHT22;5026;51.494;11.974;2023-07-08T08:34:16;42.20;39.10
9971;DHT22;5026;51.494;11.974;2023-07-08T08:36:43;40.70;38.20
9971;DHT22;5026;51.494;11.974;2023-07-08T08:39:10;40.40;38.40
9971;DHT22;5026;51.494;11.974;2023-07-08T08:41:38;40.40;39.00
9971;DHT22;5026;51.494;11.974;2023-07-08T08:44:10;38.10;40.00
9971;DHT22;5026;51.494;11.974;2023-07-08T08:46:45;36.00;41.30
9971;DHT22;5026;51.494;11.974;2023-07-08T08:49:21;36.70;42.00
9971;DHT22;5026;51.494;11.974;2023-07-08T08:51:50;37.70;41.70
9971;DHT22;5026;51.494;11.974;2023-07-08T08:54:17;37.40;41.00
9971;DHT22;5026;51.494;11.974;2023-07-08T08:56:51;39.80;39.90
9971;DHT22;5026;51.494;11.974;2023-07-08T08:59:29;39.80;39.10
9971;DHT22;5026;51.494;11.974;2023-07-08T09:02:01;40.00;39.90
9971;DHT22;5026;51.494;11.974;2023-07-08T09:04:34;41.60;39.90
9971;DHT22;5026;51.494;11.974;2023-07-08T09:07:07;38.60;39.40
9971;DHT22;5026;51.494;11.974;2023-07-08T09:09:38;37.50;40.90
9971;DHT22;5026;51.494;11.974;2023-07-08T09:12:12;39.10;40.80
9971;DHT22;5026;51.494;11.974;2023-07-08T09:14:40;37.10;41.30
9971;DHT22;5026;51.494;11.974;2023-07-08T09:17:16;38.00;41.40
9971;DHT22;5026;51.494;11.974;2023-07-08T09:19:47;37.70;41.10
9971;DHT22;5026;51.494;11.974;2023-07-08T09:22:19;38.70;41.30
9971;DHT22;5026;51.494;11.974;2023-07-08T09:24:49;38.80;40.70
9971;DHT22;5026;51.494;11.974;2023-07-08T09:27:17;38.90;41.40
9971;DHT22;5026;51.494;11.974;2023-07-08T09:29:45;40.30;41.40
9971;DHT22;5026;51.494;11.974;2023-07-08T09:32:16;40.10;40.20
9971;DHT22;5026;51.494;11.974;2023-07-08T09:34:46;40.00;40.70
9971;DHT22;5026;51.494;11.974;2023-07-08T09:37:25;41.50;39.90
9971;DHT22;5026;51.494;11.974;2023-07-08T09:39:53;41.00;38.60
9971;DHT22;5026;51.494;11.974;2023-07-08T09:42:22;41.00;39.20
9971;DHT22;5026;51.494;11.974;2023-07-08T09:44:55;42.30;38.80
9971;DHT22;5026;51.494;11.974;2023-07-08T09:47:26;41.80;38.40
9971;DHT22;5026;51.494;11.974;2023-07-08T09:49:57;40.00;39.10
9971;DHT22;5026;51.494;11.974;2023-07-08T09:52:24;40.10;39.70
9971;DHT22;5026;51.494;11.974;2023-07-08T09:54:51;39.30;38.90
9971;DHT22;5026;51.494;11.974;2023-07-08T09:57:25;37.40;37.50
9971;DHT22;5026;51.494;11.974;2023-07-08T09:59:57;37.70;38.30
9971;DHT22;5026;51.494;11.974;2023-07-08T10:02:40;37.70;38.90
9971;DHT22;5026;51.494;11.974;2023-07-08T10:05:14;38.20;37.50
9971;DHT22;5026;51.494;11.974;2023-07-08T10:07:41;38.20;38.10
9971;DHT22;5026;51.494;11.974;2023-07-08T10:10:12;37.90;37.90
9971;DHT22;5026;51.494;11.974;2023-07-08T10:12:43;36.90;38.70
9971;DHT22;5026;51.494;11.974;2023-07-08T10:15:20;35.40;39.70
9971;DHT22;5026;51.494;11.974;2023-07-08T10:17:49;35.20;40.00
9971;DHT22;5026;51.494;11.974;2023-07-08T10:20:16;34.80;39.60
9971;DHT22;5026;51.494;11.974;2023-07-08T10:22:51;34.40;38.30
9971;DHT22;5026;51.494;11.974;2023-07-08T10:25:26;33.30;40.00
9971;DHT22;5026;51.494;11.974;2023-07-08T10:28:00;33.50;40.20
9971;DHT22;5026;51.494;11.974;2023-07-08T10:30:31;33.20;40.80
9971;DHT22;5026;51.494;11.974;2023-07-08T10:33:17;33.30;41.00
9971;DHT22;5026;51.494;11.974;2023-07-08T10:35:53;31.40;41.80
9971;DHT22;5026;51.494;11.974;2023-07-08T10:38:34;31.00;43.00
9971;DHT22;5026;51.494;11.974;2023-07-08T10:41:11;31.50;42.80
9971;DHT22;5026;51.494;11.974;2023-07-08T10:43:47;31.10;42.10
9971;DHT22;5026;51.494;11.974;2023-07-08T10:46:30;31.00;42.70
9971;DHT22;5026;51.494;11.974;2023-07-08T10:49:13;31.00;42.90
9971;DHT22;5026;51.494;11.974;2023-07-08T10:51:52;30.30;42.70
9971;DHT22;5026;51.494;11.974;2023-07-08T10:54:46;30.20;44.00
9971;DHT22;5026;51.494;11.974;2023-07-08T10:57:30;30.50;43.60
9971;DHT22;5026;51.494;11.974;2023-07-08T11:00:03;30.60;43.30
9971;DHT22;5026;51.494;11.974;2023-07-08T11:03:03;31.00;41.80
9971;DHT22;5026;51.494;11.974;2023-07-08T11:05:40;31.30;41.50
9971;DHT22;5026;51.494;11.974;2023-07-08T11:08:12;31.20;41.50
9971;DHT22;5026;51.494;11.974;2023-07-08T11:10:47;31.40;41.30
9971;DHT22;5026;51.494;11.974;2023-07-08T11:13:18;31.60;41.10
9971;DHT22;5026;51.494;11.974;2023-07-08T11:15:51;31.60;40.70
9971;DHT22;5026;51.494;11.974;2023-07-08T11:18:23;31.40;40.90
9971;DHT22;5026;51.494;11.974;2023-07-08T11:20:58;31.20;40.80
9971;DHT22;5026;51.494;11.974;2023-07-08T11:23:29;31.30;40.90
9971;DHT22;5026;51.494;11.974;2023-07-08T11:26:06;31.40;41.10
9971;DHT22;5026;51.494;11.974;2023-07-08T11:31:02;31.40;40.90
9971;DHT22;5026;51.494;11.974;2023-07-08T11:33:30;31.50;40.10
9971;DHT22;5026;51.494;11.974;2023-07-08T11:36:00;31.70;40.00
9971;DHT22;5026;51.494;11.974;2023-07-08T11:38:29;31.80;40.00
9971;DHT22;5026;51.494;11.974;2023-07-08T11:41:01;31.80;40.10
9971;DHT22;5026;51.494;11.974;2023-07-08T11:43:35;31.90;40.00
9971;DHT22;5026;51.494;11.974;2023-07-08T11:46:06;31.70;39.80
9971;DHT22;5026;51.494;11.974;2023-07-08T11:48:39;31.80;40.00
9971;DHT22;5026;51.494;11.974;2023-07-08T11:51:16;32.00;40.20
9971;DHT22;5026;51.494;11.974;2023-07-08T11:53:48;31.60;39.70
9971;DHT22;5026;51.494;11.974;2023-07-08T11:56:23;31.30;39.90
9971;DHT22;5026;51.494;11.974;2023-07-08T11:59:11;31.20;40.30
9971;DHT22;5026;51.494;11.974;2023-07-08T12:01:47;31.40;40.40
9971;DHT22;5026;51.494;11.974;2023-07-08T12:04:24;31.30;40.30
9971;DHT22;5026;51.494;11.974;2023-07-08T12:07:03;31.60;40.20
9971;DHT22;5026;51.494;11.974;2023-07-08T12:09:37;31.70;40.00
9971;DHT22;5026;51.494;11.974;2023-07-08T12:12:09;31.40;39.70
9971;DHT22;5026;51.494;11.974;2023-07-08T12:17:11;31.60;40.10
9971;DHT22;5026;51.494;11.974;2023-07-08T12:19:40;31.60;39.80
9971;DHT22;5026;51.494;11.974;2023-07-08T12:22:10;31.40;40.20
9971;DHT22;5026;51.494;11.974;2023-07-08T12:24:39;31.50;40.40
9971;DHT22;5026;51.494;11.974;2023-07-08T12:27:09;31.40;39.90
9971;DHT22;5026;51.494;11.974;2023-07-08T12:29:36;31.20;40.20
9971;DHT22;5026;51.494;11.974;2023-07-08T12:32:04;31.10;40.80
9971;DHT22;5026;51.494;11.974;2023-07-08T12:34:32;31.50;40.70
9971;DHT22;5026;51.494;11.974;2023-07-08T12:36:59;31.60;40.20
9971;DHT22;5026;51.494;11.974;2023-07-08T12:39:33;31.60;40.50
9971;DHT22;5026;51.494;11.974;2023-07-08T12:42:00;31.70;40.20
9971;DHT22;5026;51.494;11.974;2023-07-08T12:44:30;31.70;39.90
9971;DHT22;5026;51.494;11.974;2023-07-08T12:47:00;31.80;39.90
9971;DHT22;5026;51.494;11.974;2023-07-08T12:49:28;32.00;40.20
9971;DHT22;5026;51.494;11.974;2023-07-08T12:51:55;32.00;39.50
9971;DHT22;5026;51.494;11.974;2023-07-08T12:54:22;31.80;39.50
9971;DHT22;5026;51.494;11.974;2023-07-08T12:56:54;31.60;39.10
9971;DHT22;5026;51.494;11.974;2023-07-08T12:59:22;31.50;39.60
9971;DHT22;5026;51.494;11.974;2023-07-08T13:01:50;31.60;40.10
9971;DHT22;5026;51.494;11.974;2023-07-08T13:04:19;31.70;39.00
9971;DHT22;5026;51.494;11.974;2023-07-08T13:06:47;31.40;39.30
9971;DHT22;5026;51.494;11.974;2023-07-08T13:09:27;31.40;39.20
9971;DHT22;5026;51.494;11.974;2023-07-08T13:12:02;31.60;39.50
9971;DHT22;5026;51.494;11.974;2023-07-08T13:14:30;31.60;39.50
9971;DHT22;5026;51.494;11.974;2023-07-08T13:19:24;31.90;40.00
9971;DHT22;5026;51.494;11.974;2023-07-08T13:21:52;32.00;39.70
9971;DHT22;5026;51.494;11.974;2023-07-08T13:24:21;32.10;39.60
9971;DHT22;5026;51.494;11.974;2023-07-08T13:26:48;32.20;39.40
9971;DHT22;5026;51.494;11.974;2023-07-08T13:29:18;32.20;39.40
9971;DHT22;5026;51.494;11.974;2023-07-08T13:31:49;32.10;39.30
9971;DHT22;5026;51.494;11.974;2023-07-08T13:34:18;32.10;39.30
9971;DHT22;5026;51.494;11.974;2023-07-08T13:36:48;32.10;39.60
9971;DHT22;5026;51.494;11.974;2023-07-08T13:39:19;32.10;39.40
9971;DHT22;5026;51.494;11.974;2023-07-08T13:41:47;32.10;39.60
9971;DHT22;5026;51.494;11.974;2023-07-08T13:46:51;31.60;39.50
9971;DHT22;5026;51.494;11.974;2023-07-08T13:49:22;31.40;40.10
9971;DHT22;5026;51.494;11.974;2023-07-08T13:51:50;31.20;40.00
9971;DHT22;5026;51.494;11.974;2023-07-08T13:54:21;31.00;40.00
9971;DHT22;5026;51.494;11.974;2023-07-08T13:56:50;31.10;40.10
9971;DHT22;5026;51.494;11.974;2023-07-08T13:59:20;31.20;40.10
9971;DHT22;5026;51.494;11.974;2023-07-08T14:01:51;31.30;40.10
9971;DHT22;5026;51.494;11.974;2023-07-08T14:04:21;31.40;40.30
9971;DHT22;5026;51.494;11.974;2023-07-08T14:06:48;31.50;39.60
9971;DHT22;5026;51.494;11.974;2023-07-08T14:09:17;31.50;39.90
9971;DHT22;5026;51.494;11.974;2023-07-08T14:11:45;31.40;39.60
9971;DHT22;5026;51.494;11.974;2023-07-08T14:14:13;31.20;39.90
9971;DHT22;5026;51.494;11.974;2023-07-08T14:16:42;31.20;39.80
9971;DHT22;5026;51.494;11.974;2023-07-08T14:19:14;31.30;40.20
9971;DHT22;5026;51.494;11.974;2023-07-08T14:21:42;31.30;39.80
9971;DHT22;5026;51.494;11.974;2023-07-08T14:24:11;31.20;38.90
9971;DHT22;5026;51.494;11.974;2023-07-08T14:26:40;31.20;39.00
9971;DHT22;5026;51.494;11.974;2023-07-08T14:29:08;31.10;39.40
9971;DHT22;5026;51.494;11.974;2023-07-08T14:31:35;31.20;39.20
9971;DHT22;5026;51.494;11.974;2023-07-08T14:34:06;31.30;39.40
9971;DHT22;5026;51.494;11.974;2023-07-08T14:36:35;31.00;39.60
9971;DHT22;5026;51.494;11.974;2023-07-08T14:39:09;31.10;39.50
9971;DHT22;5026;51.494;11.974;2023-07-08T14:41:37;31.20;39.60
9971;DHT22;5026;51.494;11.974;2023-07-08T14:44:17;31.30;39.50
9971;DHT22;5026;51.494;11.974;2023-07-08T14:46:45;31.40;39.60
9971;DHT22;5026;51.494;11.974;2023-07-08T14:49:15;31.50;39.30
9971;DHT22;5026;51.494;11.974;2023-07-08T14:51:44;31.20;39.50
9971;DHT22;5026;51.494;11.974;2023-07-08T14:54:11;31.10;39.40
9971;DHT22;5026;51.494;11.974;2023-07-08T14:56:39;31.10;39.60
9971;DHT22;5026;51.494;11.974;2023-07-08T14:59:07;31.00;39.90
9971;DHT22;5026;51.494;11.974;2023-07-08T15:01:37;31.00;39.80
9971;DHT22;5026;51.494;11.974;2023-07-08T15:04:09;31.20;39.70
9971;DHT22;5026;51.494;11.974;2023-07-08T15:09:05;31.10;39.50
9971;DHT22;5026;51.494;11.974;2023-07-08T15:11:33;31.30;39.70
9971;DHT22;5026;51.494;11.974;2023-07-08T15:14:01;31.30;40.00
9971;DHT22;5026;51.494;11.974;2023-07-08T15:21:24;31.50;39.20
9971;DHT22;5026;51.494;11.974;2023-07-08T15:23:50;31.50;39.50
9971;DHT22;5026;51.494;11.974;2023-07-08T15:26:19;31.60;39.50
9971;DHT22;5026;51.494;11.974;2023-07-08T15:28:47;31.60;39.20
9971;DHT22;5026;51.494;11.974;2023-07-08T15:31:16;31.50;39.30
9971;DHT22;5026;51.494;11.974;2023-07-08T15:33:44;31.50;39.40
9971;DHT22;5026;51.494;11.974;2023-07-08T15:36:12;31.50;39.20
9971;DHT22;5026;51.494;11.974;2023-07-08T15:38:39;31.40;39.20
9971;DHT22;5026;51.494;11.974;2023-07-08T15:41:12;27.70;35.80
9971;DHT22;5026;51.494;11.974;2023-07-08T15:43:44;31.20;39.20
9971;DHT22;5026;51.494;11.974;2023-07-08T15:51:05;31.20;39.70
9971;DHT22;5026;51.494;11.974;2023-07-08T15:53:32;31.00;39.30
9971;DHT22;5026;51.494;11.974;2023-07-08T15:58:30;31.10;39.20
9971;DHT22;5026;51.494;11.974;2023-07-08T16:01:01;31.00;39.40
9971;DHT22;5026;51.494;11.974;2023-07-08T16:03:30;31.00;39.30
9971;DHT22;5026;51.494;11.974;2023-07-08T16:05:58;31.00;38.90
9971;DHT22;5026;51.494;11.974;2023-07-08T16:08:25;31.00;38.80
9971;DHT22;5026;51.494;11.974;2023-07-08T16:10:55;31.00;39.40
9971;DHT22;5026;51.494;11.974;2023-07-08T16:13:25;30.90;39.50
9971;DHT22;5026;51.494;11.974;2023-07-08T16:15:53;31.00;39.20
9971;DHT22;5026;51.494;11.974;2023-07-08T16:18:22;31.00;39.20
9971;DHT22;5026;51.494;11.974;2023-07-08T16:20:50;30.90;40.50
9971;DHT22;5026;51.494;11.974;2023-07-08T16:23:17;30.90;40.60
9971;DHT22;5026;51.494;11.974;2023-07-08T16:25:46;30.80;40.10
9971;DHT22;5026;51.494;11.974;2023-07-08T16:28:17;30.70;40.20
9971;DHT22;5026;51.494;11.974;2023-07-08T16:30:46;30.70;40.70
9971;DHT22;5026;51.494;11.974;2023-07-08T16:33:14;30.60;39.90
9971;DHT22;5026;51.494;11.974;2023-07-08T16:35:43;30.80;39.80
9971;DHT22;5026;51.494;11.974;2023-07-08T16:38:10;30.80;39.50
9971;DHT22;5026;51.494;11.974;2023-07-08T16:43:08;30.80;40.10
9971;DHT22;5026;51.494;11.974;2023-07-08T16:48:10;30.50;40.00
9971;DHT22;5026;51.494;11.974;2023-07-08T16:50:38;30.50;40.40
9971;DHT22;5026;51.494;11.974;2023-07-08T16:53:10;30.50;39.90
9971;DHT22;5026;51.494;11.974;2023-07-08T16:55:38;30.60;39.40
9971;DHT22;5026;51.494;11.974;2023-07-08T16:58:05;30.60;39.70
9971;DHT22;5026;51.494;11.974;2023-07-08T17:00:32;30.60;39.30
9971;DHT22;5026;51.494;11.974;2023-07-08T17:03:00;30.50;39.30
9971;DHT22;5026;51.494;11.974;2023-07-08T17:05:29;30.30;38.70
9971;DHT22;5026;51.494;11.974;2023-07-08T17:10:25;30.50;39.30
9971;DHT22;5026;51.494;11.974;2023-07-08T17:12:53;30.50;39.00
9971;DHT22;5026;51.494;11.974;2023-07-08T17:15:24;30.40;39.00
9971;DHT22;5026;51.494;11.974;2023-07-08T17:17:53;30.30;39.20
9971;DHT22;5026;51.494;11.974;2023-07-08T17:20:23;30.40;39.30
9971;DHT22;5026;51.494;11.974;2023-07-08T17:25:21;30.40;38.90
9971;DHT22;5026;51.494;11.974;2023-07-08T17:27:52;30.30;39.20
9971;DHT22;5026;51.494;11.974;2023-07-08T17:30:21;30.30;38.70
9971;DHT22;5026;51.494;11.974;2023-07-08T17:32:50;30.20;38.80
9971;DHT22;5026;51.494;11.974;2023-07-08T17:35:21;30.10;39.00
9971;DHT22;5026;51.494;11.974;2023-07-08T17:37:49;30.10;38.80
9971;DHT22;5026;51.494;11.974;2023-07-08T17:40:18;30.00;39.30
9971;DHT22;5026;51.494;11.974;2023-07-08T17:42:45;29.90;39.10